sensor_id;sensor_type;location;lat;lon;timestamp;P1;durP1;ratioP1;P2;durP2;ratioP2
53391;SDS011;41667;51.922;8.850;2023-02-12T00:00:46;53.33;;;26.50;;
53391;SDS011;41667;51.922;8.850;2023-02-12T00:03:11;48.90;;;24.67;;
53391;SDS011;41667;51.922;8.850;2023-02-12T00:05:37;46.33;;;23.03;;
53391;SDS011;41667;51.922;8.850;2023-02-12T00:08:02;52.78;;;25.85;;
53391;SDS011;41667;51.922;8.850;2023-02-12T00:10:27;63.88;;;26.33;;
53391;SDS011;41667;51.922;8.850;2023-02-12T00:12:53;57.47;;;26.17;;
53391;SDS011;41667;51.922;8.850;2023-02-12T00:15:18;59.60;;;27.52;;
53391;SDS011;41667;51.922;8.850;2023-02-12T00:17:43;55.53;;;26.35;;
53391;SDS011;41667;51.922;8.850;2023-02-12T00:20:08;55.50;;;25.33;;
53391;SDS011;41667;51.922;8.850;2023-02-12T00:22:33;58.00;;;27.55;;
53391;SDS011;41667;51.922;8.850;2023-02-12T00:24:59;58.80;;;25.80;;
53391;SDS011;41667;51.922;8.850;2023-02-12T00:27:24;55.35;;;24.60;;
53391;SDS011;41667;51.922;8.850;2023-02-12T00:29:49;58.72;;;24.92;;
53391;SDS011;41667;51.922;8.850;2023-02-12T00:32:14;48.43;;;23.17;;
53391;SDS011;41667;51.922;8.850;2023-02-12T00:34:43;55.58;;;25.70;;
53391;SDS011;41667;51.922;8.850;2023-02-12T00:37:08;52.08;;;23.48;;
53391;SDS011;41667;51.922;8.850;2023-02-12T00:39:33;48.28;;;24.95;;
53391;SDS011;41667;51.922;8.850;2023-02-12T00:42:01;58.03;;;25.50;;
53391;SDS011;41667;51.922;8.850;2023-02-12T00:44:27;58.88;;;24.42;;
53391;SDS011;41667;51.922;8.850;2023-02-12T00:46:52;51.22;;;23.13;;
53391;SDS011;41667;51.922;8.850;2023-02-12T00:49:17;45.80;;;22.13;;
53391;SDS011;41667;51.922;8.850;2023-02-12T00:51:44;48.90;;;22.85;;
53391;SDS011;41667;51.922;8.850;2023-02-12T00:54:09;51.92;;;25.33;;
53391;SDS011;41667;51.922;8.850;2023-02-12T00:56:35;50.27;;;23.37;;
53391;SDS011;41667;51.922;8.850;2023-02-12T00:59:00;52.70;;;23.65;;
53391;SDS011;41667;51.922;8.850;2023-02-12T01:01:25;49.95;;;23.05;;
53391;SDS011;41667;51.922;8.850;2023-02-12T01:03:50;45.85;;;23.30;;
53391;SDS011;41667;51.922;8.850;2023-02-12T01:06:15;47.15;;;22.10;;
53391;SDS011;41667;51.922;8.850;2023-02-12T01:08:40;46.15;;;22.50;;
53391;SDS011;41667;51.922;8.850;2023-02-12T01:11:05;50.20;;;24.55;;
53391;SDS011;41667;51.922;8.850;2023-02-12T01:13:31;49.85;;;23.42;;
53391;SDS011;41667;51.922;8.850;2023-02-12T01:16:08;51.33;;;24.95;;
53391;SDS011;41667;51.922;8.850;2023-02-12T01:18:37;48.42;;;22.52;;
53391;SDS011;41667;51.922;8.850;2023-02-12T01:21:19;47.28;;;23.65;;
53391;SDS011;41667;51.922;8.850;2023-02-12T01:23:45;46.95;;;24.10;;
53391;SDS011;41667;51.922;8.850;2023-02-12T01:26:10;54.47;;;22.88;;
53391;SDS011;41667;51.922;8.850;2023-02-12T01:28:37;48.20;;;23.05;;
53391;SDS011;41667;51.922;8.850;2023-02-12T01:31:06;46.60;;;23.50;;
53391;SDS011;41667;51.922;8.850;2023-02-12T01:33:32;44.65;;;21.55;;
53391;SDS011;41667;51.922;8.850;2023-02-12T01:35:57;37.25;;;17.98;;
53391;SDS011;41667;51.922;8.850;2023-02-12T01:38:22;41.58;;;20.63;;
53391;SDS011;41667;51.922;8.850;2023-02-12T01:40:47;36.75;;;19.17;;
53391;SDS011;41667;51.922;8.850;2023-02-12T01:43:12;41.22;;;21.02;;
53391;SDS011;41667;51.922;8.850;2023-02-12T01:45:42;40.97;;;20.23;;
53391;SDS011;41667;51.922;8.850;2023-02-12T01:48:09;45.83;;;20.27;;
53391;SDS011;41667;51.922;8.850;2023-02-12T01:50:34;40.35;;;19.02;;
53391;SDS011;41667;51.922;8.850;2023-02-12T01:52:59;42.83;;;20.83;;
53391;SDS011;41667;51.922;8.850;2023-02-12T01:55:24;43.05;;;19.70;;
53391;SDS011;41667;51.922;8.850;2023-02-12T01:57:50;40.45;;;18.08;;
53391;SDS011;41667;51.922;8.850;2023-02-12T02:00:20;46.92;;;20.90;;
53391;SDS011;41667;51.922;8.850;2023-02-12T02:02:46;40.83;;;19.05;;
53391;SDS011;41667;51.922;8.850;2023-02-12T02:05:12;43.10;;;19.40;;
53391;SDS011;41667;51.922;8.850;2023-02-12T02:07:39;39.58;;;20.10;;
53391;SDS011;41667;51.922;8.850;2023-02-12T02:10:04;40.08;;;18.15;;
53391;SDS011;41667;51.922;8.850;2023-02-12T02:12:30;40.28;;;17.92;;
53391;SDS011;41667;51.922;8.850;2023-02-12T02:15:14;41.53;;;19.52;;
53391;SDS011;41667;51.922;8.850;2023-02-12T02:17:41;36.70;;;19.47;;
53391;SDS011;41667;51.922;8.850;2023-02-12T02:22:40;36.90;;;19.10;;
53391;SDS011;41667;51.922;8.850;2023-02-12T02:30:23;40.03;;;20.40;;
53391;SDS011;41667;51.922;8.850;2023-02-12T02:37:59;35.63;;;16.70;;
53391;SDS011;41667;51.922;8.850;2023-02-12T02:40:30;36.30;;;17.88;;
53391;SDS011;41667;51.922;8.850;2023-02-12T02:43:08;39.38;;;17.50;;
53391;SDS011;41667;51.922;8.850;2023-02-12T02:45:39;30.40;;;15.63;;
53391;SDS011;41667;51.922;8.850;2023-02-12T02:50:30;32.30;;;18.20;;
53391;SDS011;41667;51.922;8.850;2023-02-12T02:53:03;36.10;;;17.17;;
53391;SDS011;41667;51.922;8.850;2023-02-12T02:55:32;37.33;;;18.17;;
53391;SDS011;41667;51.922;8.850;2023-02-12T02:58:00;37.33;;;17.23;;
53391;SDS011;41667;51.922;8.850;2023-02-12T03:00:30;33.65;;;17.33;;
53391;SDS011;41667;51.922;8.850;2023-02-12T03:02:59;29.48;;;16.75;;
53391;SDS011;41667;51.922;8.850;2023-02-12T03:05:28;29.73;;;16.85;;
53391;SDS011;41667;51.922;8.850;2023-02-12T03:07:56;33.95;;;15.35;;
53391;SDS011;41667;51.922;8.850;2023-02-12T03:10:28;31.58;;;17.63;;
53391;SDS011;41667;51.922;8.850;2023-02-12T03:13:00;32.28;;;15.50;;
53391;SDS011;41667;51.922;8.850;2023-02-12T03:15:36;35.72;;;17.63;;
53391;SDS011;41667;51.922;8.850;2023-02-12T03:18:04;28.95;;;15.38;;
53391;SDS011;41667;51.922;8.850;2023-02-12T03:20:32;40.00;;;18.58;;
53391;SDS011;41667;51.922;8.850;2023-02-12T03:23:01;38.05;;;19.00;;
53391;SDS011;41667;51.922;8.850;2023-02-12T03:25:39;38.42;;;18.52;;
53391;SDS011;41667;51.922;8.850;2023-02-12T03:31:01;33.38;;;19.02;;
53391;SDS011;41667;51.922;8.850;2023-02-12T03:33:28;35.47;;;19.25;;
53391;SDS011;41667;51.922;8.850;2023-02-12T03:35:56;30.95;;;16.70;;
53391;SDS011;41667;51.922;8.850;2023-02-12T03:41:10;30.60;;;17.45;;
53391;SDS011;41667;51.922;8.850;2023-02-12T03:43:46;31.75;;;17.23;;
53391;SDS011;41667;51.922;8.850;2023-02-12T03:46:16;37.97;;;17.58;;
53391;SDS011;41667;51.922;8.850;2023-02-12T03:49:45;32.47;;;16.05;;
53391;SDS011;41667;51.922;8.850;2023-02-12T03:51:39;32.28;;;16.58;;
53391;SDS011;41667;51.922;8.850;2023-02-12T03:54:06;34.28;;;17.02;;
53391;SDS011;41667;51.922;8.850;2023-02-12T03:56:33;35.30;;;17.15;;
53391;SDS011;41667;51.922;8.850;2023-02-12T03:59:02;32.78;;;17.90;;
53391;SDS011;41667;51.922;8.850;2023-02-12T04:01:27;27.35;;;15.57;;
53391;SDS011;41667;51.922;8.850;2023-02-12T04:03:52;31.10;;;16.48;;
53391;SDS011;41667;51.922;8.850;2023-02-12T04:06:18;34.13;;;17.60;;
53391;SDS011;41667;51.922;8.850;2023-02-12T04:08:44;35.50;;;17.45;;
53391;SDS011;41667;51.922;8.850;2023-02-12T04:11:15;29.77;;;16.48;;
53391;SDS011;41667;51.922;8.850;2023-02-12T04:13:41;35.22;;;16.05;;
53391;SDS011;41667;51.922;8.850;2023-02-12T04:16:19;39.20;;;17.98;;
53391;SDS011;41667;51.922;8.850;2023-02-12T04:18:46;28.25;;;15.73;;
53391;SDS011;41667;51.922;8.850;2023-02-12T04:29:04;35.60;;;17.40;;
53391;SDS011;41667;51.922;8.850;2023-02-12T04:31:45;41.25;;;17.88;;
53391;SDS011;41667;51.922;8.850;2023-02-12T04:36:48;34.65;;;17.48;;
53391;SDS011;41667;51.922;8.850;2023-02-12T04:39:16;32.63;;;16.83;;
53391;SDS011;41667;51.922;8.850;2023-02-12T04:41:42;33.78;;;16.85;;
53391;SDS011;41667;51.922;8.850;2023-02-12T04:44:17;32.30;;;16.95;;
53391;SDS011;41667;51.922;8.850;2023-02-12T04:46:43;34.65;;;18.73;;
53391;SDS011;41667;51.922;8.850;2023-02-12T04:49:11;32.92;;;16.50;;
53391;SDS011;41667;51.922;8.850;2023-02-12T04:51:37;32.58;;;16.17;;
53391;SDS011;41667;51.922;8.850;2023-02-12T04:54:02;36.65;;;18.08;;
53391;SDS011;41667;51.922;8.850;2023-02-12T04:56:27;41.60;;;18.70;;
53391;SDS011;41667;51.922;8.850;2023-02-12T04:58:53;34.78;;;16.30;;
53391;SDS011;41667;51.922;8.850;2023-02-12T05:01:21;35.33;;;18.70;;
53391;SDS011;41667;51.922;8.850;2023-02-12T05:03:46;36.93;;;18.47;;
53391;SDS011;41667;51.922;8.850;2023-02-12T05:06:11;31.17;;;16.98;;
53391;SDS011;41667;51.922;8.850;2023-02-12T05:08:37;37.78;;;18.95;;
53391;SDS011;41667;51.922;8.850;2023-02-12T05:11:05;34.85;;;17.55;;
53391;SDS011;41667;51.922;8.850;2023-02-12T05:13:31;45.22;;;18.02;;
53391;SDS011;41667;51.922;8.850;2023-02-12T05:15:56;34.03;;;17.90;;
53391;SDS011;41667;51.922;8.850;2023-02-12T05:18:21;35.15;;;17.08;;
53391;SDS011;41667;51.922;8.850;2023-02-12T05:20:53;33.85;;;17.33;;
53391;SDS011;41667;51.922;8.850;2023-02-12T05:25:43;32.20;;;17.67;;
53391;SDS011;41667;51.922;8.850;2023-02-12T05:28:09;37.50;;;17.67;;
53391;SDS011;41667;51.922;8.850;2023-02-12T05:30:34;33.95;;;17.23;;
53391;SDS011;41667;51.922;8.850;2023-02-12T05:32:59;30.90;;;15.57;;
53391;SDS011;41667;51.922;8.850;2023-02-12T05:35:24;29.75;;;15.65;;
53391;SDS011;41667;51.922;8.850;2023-02-12T05:37:49;28.92;;;16.48;;
53391;SDS011;41667;51.922;8.850;2023-02-12T05:40:14;28.98;;;16.30;;
53391;SDS011;41667;51.922;8.850;2023-02-12T05:42:39;35.78;;;16.92;;
53391;SDS011;41667;51.922;8.850;2023-02-12T05:45:05;25.25;;;15.20;;
53391;SDS011;41667;51.922;8.850;2023-02-12T05:47:30;28.85;;;16.40;;
53391;SDS011;41667;51.922;8.850;2023-02-12T05:49:55;25.60;;;15.48;;
53391;SDS011;41667;51.922;8.850;2023-02-12T05:52:20;29.85;;;16.23;;
53391;SDS011;41667;51.922;8.850;2023-02-12T05:54:47;26.60;;;16.15;;
53391;SDS011;41667;51.922;8.850;2023-02-12T05:57:12;28.00;;;17.75;;
53391;SDS011;41667;51.922;8.850;2023-02-12T05:59:38;29.85;;;16.58;;
53391;SDS011;41667;51.922;8.850;2023-02-12T06:02:03;27.77;;;16.50;;
53391;SDS011;41667;51.922;8.850;2023-02-12T06:04:29;31.85;;;17.50;;
53391;SDS011;41667;51.922;8.850;2023-02-12T06:06:54;27.52;;;16.45;;
53391;SDS011;41667;51.922;8.850;2023-02-12T06:09:19;30.35;;;17.77;;
53391;SDS011;41667;51.922;8.850;2023-02-12T06:11:45;36.35;;;17.65;;
53391;SDS011;41667;51.922;8.850;2023-02-12T06:14:11;35.73;;;17.17;;
53391;SDS011;41667;51.922;8.850;2023-02-12T06:16:37;28.38;;;16.30;;
53391;SDS011;41667;51.922;8.850;2023-02-12T06:19:03;30.33;;;17.37;;
53391;SDS011;41667;51.922;8.850;2023-02-12T06:21:29;36.85;;;19.92;;
53391;SDS011;41667;51.922;8.850;2023-02-12T06:23:54;36.45;;;19.13;;
53391;SDS011;41667;51.922;8.850;2023-02-12T06:26:20;37.47;;;18.77;;
53391;SDS011;41667;51.922;8.850;2023-02-12T06:28:45;36.25;;;18.02;;
53391;SDS011;41667;51.922;8.850;2023-02-12T06:31:24;42.38;;;21.30;;
53391;SDS011;41667;51.922;8.850;2023-02-12T06:33:49;38.13;;;19.42;;
53391;SDS011;41667;51.922;8.850;2023-02-12T06:36:15;49.67;;;22.38;;
53391;SDS011;41667;51.922;8.850;2023-02-12T06:38:40;43.55;;;20.00;;
53391;SDS011;41667;51.922;8.850;2023-02-12T06:41:05;45.80;;;22.03;;
53391;SDS011;41667;51.922;8.850;2023-02-12T06:43:30;46.27;;;23.50;;
53391;SDS011;41667;51.922;8.850;2023-02-12T06:45:58;48.10;;;23.33;;
53391;SDS011;41667;51.922;8.850;2023-02-12T06:48:24;44.85;;;22.20;;
53391;SDS011;41667;51.922;8.850;2023-02-12T06:50:49;49.08;;;23.83;;
53391;SDS011;41667;51.922;8.850;2023-02-12T06:53:14;57.67;;;26.42;;
53391;SDS011;41667;51.922;8.850;2023-02-12T06:55:39;51.42;;;22.75;;
53391;SDS011;41667;51.922;8.850;2023-02-12T06:58:04;56.75;;;25.85;;
53391;SDS011;41667;51.922;8.850;2023-02-12T07:00:29;52.03;;;24.95;;
53391;SDS011;41667;51.922;8.850;2023-02-12T07:02:55;54.85;;;25.63;;
53391;SDS011;41667;51.922;8.850;2023-02-12T07:05:20;45.92;;;23.17;;
53391;SDS011;41667;51.922;8.850;2023-02-12T07:07:45;62.05;;;25.45;;
53391;SDS011;41667;51.922;8.850;2023-02-12T07:10:11;55.30;;;25.33;;
53391;SDS011;41667;51.922;8.850;2023-02-12T07:12:36;54.22;;;25.65;;
53391;SDS011;41667;51.922;8.850;2023-02-12T07:15:01;54.42;;;24.15;;
53391;SDS011;41667;51.922;8.850;2023-02-12T07:17:28;54.78;;;23.70;;
53391;SDS011;41667;51.922;8.850;2023-02-12T07:19:53;64.75;;;26.15;;
53391;SDS011;41667;51.922;8.850;2023-02-12T07:22:18;47.60;;;24.23;;
53391;SDS011;41667;51.922;8.850;2023-02-12T07:24:45;62.70;;;24.25;;
53391;SDS011;41667;51.922;8.850;2023-02-12T07:27:10;53.80;;;24.20;;
53391;SDS011;41667;51.922;8.850;2023-02-12T07:29:35;54.60;;;25.30;;
53391;SDS011;41667;51.922;8.850;2023-02-12T07:32:00;53.53;;;24.60;;
53391;SDS011;41667;51.922;8.850;2023-02-12T07:34:25;51.05;;;24.55;;
53391;SDS011;41667;51.922;8.850;2023-02-12T07:36:50;53.95;;;25.40;;
53391;SDS011;41667;51.922;8.850;2023-02-12T07:39:15;58.17;;;24.25;;
53391;SDS011;41667;51.922;8.850;2023-02-12T07:41:40;59.60;;;24.50;;
53391;SDS011;41667;51.922;8.850;2023-02-12T07:44:06;57.17;;;24.10;;
53391;SDS011;41667;51.922;8.850;2023-02-12T07:46:34;55.33;;;24.67;;
53391;SDS011;41667;51.922;8.850;2023-02-12T07:49:01;53.60;;;22.88;;
53391;SDS011;41667;51.922;8.850;2023-02-12T07:51:28;52.42;;;23.35;;
53391;SDS011;41667;51.922;8.850;2023-02-12T07:53:53;44.58;;;21.75;;
53391;SDS011;41667;51.922;8.850;2023-02-12T07:56:19;46.90;;;21.15;;
53391;SDS011;41667;51.922;8.850;2023-02-12T07:58:46;44.58;;;21.20;;
53391;SDS011;41667;51.922;8.850;2023-02-12T08:01:25;49.95;;;21.05;;
53391;SDS011;41667;51.922;8.850;2023-02-12T08:03:51;48.13;;;22.90;;
53391;SDS011;41667;51.922;8.850;2023-02-12T08:06:23;55.03;;;23.35;;
53391;SDS011;41667;51.922;8.850;2023-02-12T08:11:13;44.70;;;20.90;;
53391;SDS011;41667;51.922;8.850;2023-02-12T08:13:39;50.78;;;23.45;;
53391;SDS011;41667;51.922;8.850;2023-02-12T08:16:05;45.13;;;21.35;;
53391;SDS011;41667;51.922;8.850;2023-02-12T08:18:31;46.85;;;23.52;;
53391;SDS011;41667;51.922;8.850;2023-02-12T08:21:00;51.90;;;22.95;;
53391;SDS011;41667;51.922;8.850;2023-02-12T08:23:25;53.88;;;23.83;;
53391;SDS011;41667;51.922;8.850;2023-02-12T08:25:50;52.08;;;23.98;;
53391;SDS011;41667;51.922;8.850;2023-02-12T08:28:15;50.95;;;24.33;;
53391;SDS011;41667;51.922;8.850;2023-02-12T08:30:40;51.13;;;24.00;;
53391;SDS011;41667;51.922;8.850;2023-02-12T08:33:05;55.95;;;25.00;;
53391;SDS011;41667;51.922;8.850;2023-02-12T08:35:30;56.13;;;22.95;;
53391;SDS011;41667;51.922;8.850;2023-02-12T08:37:56;61.25;;;23.42;;
53391;SDS011;41667;51.922;8.850;2023-02-12T08:40:21;50.15;;;23.83;;
53391;SDS011;41667;51.922;8.850;2023-02-12T08:42:46;52.00;;;23.75;;
53391;SDS011;41667;51.922;8.850;2023-02-12T08:45:11;51.50;;;24.20;;
53391;SDS011;41667;51.922;8.850;2023-02-12T08:47:36;49.28;;;22.20;;
53391;SDS011;41667;51.922;8.850;2023-02-12T08:50:01;59.00;;;23.55;;
53391;SDS011;41667;51.922;8.850;2023-02-12T08:52:26;47.67;;;22.33;;
53391;SDS011;41667;51.922;8.850;2023-02-12T08:54:51;46.53;;;21.33;;
53391;SDS011;41667;51.922;8.850;2023-02-12T08:57:17;53.63;;;24.43;;
53391;SDS011;41667;51.922;8.850;2023-02-12T08:59:42;43.25;;;21.58;;
53391;SDS011;41667;51.922;8.850;2023-02-12T09:02:08;53.90;;;25.17;;
53391;SDS011;41667;51.922;8.850;2023-02-12T09:04:34;41.20;;;20.52;;
53391;SDS011;41667;51.922;8.850;2023-02-12T09:06:59;51.65;;;23.85;;
53391;SDS011;41667;51.922;8.850;2023-02-12T09:09:25;48.33;;;23.20;;
53391;SDS011;41667;51.922;8.850;2023-02-12T09:11:50;43.28;;;20.88;;
53391;SDS011;41667;51.922;8.850;2023-02-12T09:14:16;51.50;;;22.93;;
53391;SDS011;41667;51.922;8.850;2023-02-12T09:16:42;48.35;;;24.80;;
53391;SDS011;41667;51.922;8.850;2023-02-12T09:19:08;42.35;;;21.52;;
53391;SDS011;41667;51.922;8.850;2023-02-12T09:21:35;40.67;;;21.67;;
53391;SDS011;41667;51.922;8.850;2023-02-12T09:24:00;46.85;;;22.23;;
53391;SDS011;41667;51.922;8.850;2023-02-12T09:26:26;38.17;;;19.48;;
53391;SDS011;41667;51.922;8.850;2023-02-12T09:28:51;41.13;;;20.10;;
53391;SDS011;41667;51.922;8.850;2023-02-12T09:31:18;36.58;;;20.05;;
53391;SDS011;41667;51.922;8.850;2023-02-12T09:33:44;42.67;;;21.08;;
53391;SDS011;41667;51.922;8.850;2023-02-12T09:36:11;37.57;;;20.03;;
53391;SDS011;41667;51.922;8.850;2023-02-12T09:38:36;46.33;;;21.48;;
53391;SDS011;41667;51.922;8.850;2023-02-12T09:43:39;44.08;;;21.73;;
53391;SDS011;41667;51.922;8.850;2023-02-12T09:48:34;43.50;;;22.67;;
53391;SDS011;41667;51.922;8.850;2023-02-12T09:51:03;46.27;;;22.13;;
53391;SDS011;41667;51.922;8.850;2023-02-12T09:53:31;41.67;;;22.58;;
53391;SDS011;41667;51.922;8.850;2023-02-12T09:55:58;45.78;;;22.98;;
53391;SDS011;41667;51.922;8.850;2023-02-12T09:58:34;47.90;;;23.65;;
53391;SDS011;41667;51.922;8.850;2023-02-12T10:01:09;57.10;;;26.35;;
53391;SDS011;41667;51.922;8.850;2023-02-12T10:03:35;47.90;;;24.55;;
53391;SDS011;41667;51.922;8.850;2023-02-12T10:06:01;48.35;;;22.80;;
53391;SDS011;41667;51.922;8.850;2023-02-12T10:08:31;55.42;;;25.20;;
53391;SDS011;41667;51.922;8.850;2023-02-12T10:21:05;49.38;;;22.88;;
53391;SDS011;41667;51.922;8.850;2023-02-12T10:23:46;53.20;;;22.48;;
53391;SDS011;41667;51.922;8.850;2023-02-12T10:26:17;49.53;;;22.70;;
53391;SDS011;41667;51.922;8.850;2023-02-12T10:28:43;41.50;;;20.00;;
53391;SDS011;41667;51.922;8.850;2023-02-12T10:33:44;51.95;;;22.80;;
53391;SDS011;41667;51.922;8.850;2023-02-12T10:36:23;47.30;;;20.52;;
53391;SDS011;41667;51.922;8.850;2023-02-12T10:38:51;45.53;;;19.20;;
53391;SDS011;41667;51.922;8.850;2023-02-12T10:41:19;37.53;;;17.92;;
53391;SDS011;41667;51.922;8.850;2023-02-12T10:43:44;48.57;;;19.00;;
53391;SDS011;41667;51.922;8.850;2023-02-12T10:46:13;40.43;;;18.93;;
53391;SDS011;41667;51.922;8.850;2023-02-12T10:48:38;42.47;;;20.45;;
53391;SDS011;41667;51.922;8.850;2023-02-12T10:53:35;36.78;;;18.10;;
53391;SDS011;41667;51.922;8.850;2023-02-12T10:58:57;42.45;;;18.67;;
53391;SDS011;41667;51.922;8.850;2023-02-12T11:03:51;38.05;;;18.88;;
53391;SDS011;41667;51.922;8.850;2023-02-12T11:06:17;49.47;;;21.08;;
53391;SDS011;41667;51.922;8.850;2023-02-12T11:08:43;44.60;;;19.20;;
53391;SDS011;41667;51.922;8.850;2023-02-12T11:11:10;27.33;;;14.57;;
53391;SDS011;41667;51.922;8.850;2023-02-12T11:13:36;37.45;;;15.27;;
53391;SDS011;41667;51.922;8.850;2023-02-12T11:16:02;38.45;;;16.52;;
53391;SDS011;41667;51.922;8.850;2023-02-12T11:18:29;33.38;;;15.25;;
53391;SDS011;41667;51.922;8.850;2023-02-12T11:21:09;31.67;;;15.65;;
53391;SDS011;41667;51.922;8.850;2023-02-12T11:23:39;30.38;;;14.38;;
53391;SDS011;41667;51.922;8.850;2023-02-12T11:26:06;32.22;;;16.05;;
53391;SDS011;41667;51.922;8.850;2023-02-12T11:28:33;29.55;;;15.65;;
53391;SDS011;41667;51.922;8.850;2023-02-12T11:31:00;36.17;;;15.70;;
53391;SDS011;41667;51.922;8.850;2023-02-12T11:33:32;33.88;;;17.17;;
53391;SDS011;41667;51.922;8.850;2023-02-12T11:36:00;33.33;;;15.38;;
53391;SDS011;41667;51.922;8.850;2023-02-12T11:38:27;38.60;;;17.60;;
53391;SDS011;41667;51.922;8.850;2023-02-12T11:40:55;37.28;;;16.67;;
53391;SDS011;41667;51.922;8.850;2023-02-12T11:43:21;29.70;;;15.93;;
53391;SDS011;41667;51.922;8.850;2023-02-12T11:45:48;35.05;;;17.52;;
53391;SDS011;41667;51.922;8.850;2023-02-12T11:48:18;32.03;;;16.75;;
53391;SDS011;41667;51.922;8.850;2023-02-12T11:50:47;36.40;;;17.63;;
53391;SDS011;41667;51.922;8.850;2023-02-12T11:53:18;35.25;;;16.38;;
53391;SDS011;41667;51.922;8.850;2023-02-12T11:55:44;37.40;;;16.50;;
53391;SDS011;41667;51.922;8.850;2023-02-12T11:58:19;32.40;;;15.40;;
53391;SDS011;41667;51.922;8.850;2023-02-12T12:01:03;26.20;;;14.55;;
53391;SDS011;41667;51.922;8.850;2023-02-12T12:03:31;25.02;;;13.25;;
53391;SDS011;41667;51.922;8.850;2023-02-12T12:06:00;26.10;;;14.07;;
53391;SDS011;41667;51.922;8.850;2023-02-12T12:08:27;32.25;;;13.35;;
53391;SDS011;41667;51.922;8.850;2023-02-12T12:10:57;21.70;;;11.43;;
53391;SDS011;41667;51.922;8.850;2023-02-12T12:13:26;17.67;;;9.13;;
53391;SDS011;41667;51.922;8.850;2023-02-12T12:16:09;14.63;;;8.70;;
53391;SDS011;41667;51.922;8.850;2023-02-12T12:18:55;15.40;;;7.82;;
53391;SDS011;41667;51.922;8.850;2023-02-12T12:21:44;15.95;;;8.93;;
53391;SDS011;41667;51.922;8.850;2023-02-12T12:24:11;15.32;;;9.00;;
53391;SDS011;41667;51.922;8.850;2023-02-12T12:26:38;13.98;;;8.10;;
53391;SDS011;41667;51.922;8.850;2023-02-12T12:29:23;18.27;;;9.40;;
53391;SDS011;41667;51.922;8.850;2023-02-12T12:31:55;15.10;;;8.15;;
53391;SDS011;41667;51.922;8.850;2023-02-12T12:34:22;15.63;;;8.38;;
53391;SDS011;41667;51.922;8.850;2023-02-12T12:36:56;18.50;;;8.30;;
53391;SDS011;41667;51.922;8.850;2023-02-12T12:52:47;18.75;;;8.35;;
53391;SDS011;41667;51.922;8.850;2023-02-12T12:55:33;11.25;;;7.35;;
53391;SDS011;41667;51.922;8.850;2023-02-12T12:58:10;20.23;;;9.98;;
53391;SDS011;41667;51.922;8.850;2023-02-12T13:00:40;13.23;;;7.25;;
53391;SDS011;41667;51.922;8.850;2023-02-12T13:05:53;16.67;;;9.57;;
53391;SDS011;41667;51.922;8.850;2023-02-12T13:13:19;13.55;;;7.75;;
53391;SDS011;41667;51.922;8.850;2023-02-12T13:15:49;17.58;;;9.40;;
53391;SDS011;41667;51.922;8.850;2023-02-12T13:23:26;15.02;;;8.40;;
53391;SDS011;41667;51.922;8.850;2023-02-12T13:26:08;22.65;;;9.40;;
53391;SDS011;41667;51.922;8.850;2023-02-12T13:28:36;15.63;;;9.60;;
53391;SDS011;41667;51.922;8.850;2023-02-12T13:31:03;18.10;;;8.95;;
53391;SDS011;41667;51.922;8.850;2023-02-12T13:33:42;20.45;;;12.10;;
53391;SDS011;41667;51.922;8.850;2023-02-12T13:36:09;20.17;;;11.80;;
53391;SDS011;41667;51.922;8.850;2023-02-12T13:38:41;16.40;;;9.50;;
53391;SDS011;41667;51.922;8.850;2023-02-12T13:41:08;21.15;;;11.05;;
53391;SDS011;41667;51.922;8.850;2023-02-12T13:43:55;19.75;;;10.35;;
53391;SDS011;41667;51.922;8.850;2023-02-12T13:49:17;24.02;;;11.13;;
53391;SDS011;41667;51.922;8.850;2023-02-12T13:51:46;16.42;;;9.65;;
53391;SDS011;41667;51.922;8.850;2023-02-12T13:54:16;17.58;;;9.70;;
53391;SDS011;41667;51.922;8.850;2023-02-12T13:56:50;20.10;;;12.32;;
53391;SDS011;41667;51.922;8.850;2023-02-12T14:01:57;19.83;;;10.13;;
53391;SDS011;41667;51.922;8.850;2023-02-12T14:04:25;17.83;;;9.65;;
53391;SDS011;41667;51.922;8.850;2023-02-12T14:06:58;16.02;;;9.32;;
53391;SDS011;41667;51.922;8.850;2023-02-12T14:12:16;19.13;;;9.80;;
53391;SDS011;41667;51.922;8.850;2023-02-12T14:14:52;13.80;;;7.85;;
53391;SDS011;41667;51.922;8.850;2023-02-12T14:25:25;14.70;;;8.55;;
53391;SDS011;41667;51.922;8.850;2023-02-12T14:27:52;14.02;;;8.23;;
53391;SDS011;41667;51.922;8.850;2023-02-12T14:38:02;12.40;;;7.43;;
53391;SDS011;41667;51.922;8.850;2023-02-12T14:42:58;13.53;;;8.60;;
53391;SDS011;41667;51.922;8.850;2023-02-12T14:45:28;12.30;;;7.82;;
53391;SDS011;41667;51.922;8.850;2023-02-12T14:47:54;14.32;;;8.60;;
53391;SDS011;41667;51.922;8.850;2023-02-12T14:50:24;16.63;;;8.73;;
53391;SDS011;41667;51.922;8.850;2023-02-12T14:52:54;12.50;;;7.70;;
53391;SDS011;41667;51.922;8.850;2023-02-12T14:55:26;11.05;;;8.30;;
53391;SDS011;41667;51.922;8.850;2023-02-12T14:57:59;15.23;;;8.10;;
53391;SDS011;41667;51.922;8.850;2023-02-12T15:00:26;11.18;;;6.90;;
53391;SDS011;41667;51.922;8.850;2023-02-12T15:05:29;13.77;;;7.88;;
53391;SDS011;41667;51.922;8.850;2023-02-12T15:10:26;12.98;;;8.13;;
53391;SDS011;41667;51.922;8.850;2023-02-12T15:15:52;12.48;;;8.30;;
53391;SDS011;41667;51.922;8.850;2023-02-12T15:18:21;14.35;;;8.18;;
53391;SDS011;41667;51.922;8.850;2023-02-12T15:20:53;13.48;;;7.80;;
53391;SDS011;41667;51.922;8.850;2023-02-12T15:26:04;13.80;;;8.00;;
53391;SDS011;41667;51.922;8.850;2023-02-12T15:28:31;15.45;;;9.73;;
53391;SDS011;41667;51.922;8.850;2023-02-12T15:30:58;15.02;;;8.38;;
53391;SDS011;41667;51.922;8.850;2023-02-12T15:33:25;15.25;;;7.57;;
53391;SDS011;41667;51.922;8.850;2023-02-12T15:35:50;11.80;;;6.90;;
53391;SDS011;41667;51.922;8.850;2023-02-12T15:38:19;12.50;;;7.90;;
53391;SDS011;41667;51.922;8.850;2023-02-12T15:40:52;13.25;;;7.78;;
53391;SDS011;41667;51.922;8.850;2023-02-12T15:43:18;13.27;;;7.93;;
53391;SDS011;41667;51.922;8.850;2023-02-12T15:45:48;13.68;;;7.45;;
53391;SDS011;41667;51.922;8.850;2023-02-12T15:48:18;10.90;;;7.00;;
53391;SDS011;41667;51.922;8.850;2023-02-12T15:50:48;10.77;;;6.70;;
53391;SDS011;41667;51.922;8.850;2023-02-12T15:53:15;11.43;;;6.32;;
53391;SDS011;41667;51.922;8.850;2023-02-12T15:55:41;12.30;;;8.35;;
53391;SDS011;41667;51.922;8.850;2023-02-12T15:58:17;12.00;;;7.85;;
53391;SDS011;41667;51.922;8.850;2023-02-12T16:00:44;11.57;;;6.55;;
53391;SDS011;41667;51.922;8.850;2023-02-12T16:03:17;13.48;;;7.25;;
53391;SDS011;41667;51.922;8.850;2023-02-12T16:05:42;12.90;;;7.33;;
53391;SDS011;41667;51.922;8.850;2023-02-12T16:08:09;12.40;;;6.67;;
53391;SDS011;41667;51.922;8.850;2023-02-12T16:10:39;9.95;;;6.03;;
53391;SDS011;41667;51.922;8.850;2023-02-12T16:13:06;12.55;;;6.18;;
53391;SDS011;41667;51.922;8.850;2023-02-12T16:15:31;11.27;;;7.55;;
53391;SDS011;41667;51.922;8.850;2023-02-12T16:17:58;11.90;;;6.60;;
53391;SDS011;41667;51.922;8.850;2023-02-12T16:20:28;12.23;;;7.00;;
53391;SDS011;41667;51.922;8.850;2023-02-12T16:22:54;10.88;;;6.80;;
53391;SDS011;41667;51.922;8.850;2023-02-12T16:25:30;13.25;;;7.25;;
53391;SDS011;41667;51.922;8.850;2023-02-12T16:28:00;13.18;;;7.20;;
53391;SDS011;41667;51.922;8.850;2023-02-12T16:32:51;13.02;;;7.93;;
53391;SDS011;41667;51.922;8.850;2023-02-12T16:37:43;14.70;;;7.55;;